Time;durP1;ratioP1;P1;durP2;ratioP2;P2;SDS_P1;SDS_P2;PMS_P1;PMS_P2;Temp;Humidity;BMP_temperature;BMP_pressure;BME280_temperature;BME280_humidity;BME280_pressure;Samples;Min_cycle;Max_cycle;Signal;HPM_P1;HPM_P2
2022/04/06 00:01:45;;;;;;;3.63;3.33;;;9.60;99.90;;;;;;5049796;28;20115;-68
2022/04/06 00:04:11;;;;;;;3.30;3.00;;;9.50;99.90;;;;;;5048981;28;20040;-68
2022/04/06 00:06:37;;;;;;;3.17;2.95;;;9.50;99.90;;;;;;5047642;28;20393;-68
2022/04/06 00:09:03;;;;;;;2.80;2.60;;;9.60;99.90;;;;;;5053153;28;20056;-68
2022/04/06 00:11:29;;;;;;;2.88;2.25;;;9.60;99.80;;;;;;5053163;28;20457;-68
2022/04/06 00:13:55;;;;;;;2.17;2.00;;;9.80;99.40;;;;;;5053524;28;20045;-68
2022/04/06 00:16:20;;;;;;;2.60;2.40;;;10.00;99.10;;;;;;5054216;28;20049;-68
2022/04/06 00:18:46;;;;;;;3.45;2.50;;;10.10;98.60;;;;;;5057993;28;20128;-68
2022/04/06 00:21:12;;;;;;;2.45;2.25;;;10.20;98.50;;;;;;5050975;28;20641;-68
2022/04/06 00:23:38;;;;;;;3.10;2.80;;;10.20;98.50;;;;;;5055832;28;20045;-68
2022/04/06 00:26:05;;;;;;;3.80;2.97;;;10.20;98.40;;;;;;5050416;28;20519;-68
2022/04/06 00:28:31;;;;;;;2.47;2.28;;;10.20;98.30;;;;;;5054318;28;20045;-68
2022/04/06 00:30:57;;;;;;;3.00;2.70;;;10.20;98.50;;;;;;5055999;28;20098;-68
2022/04/06 00:33:22;;;;;;;3.35;2.63;;;10.30;98.30;;;;;;5056324;28;20131;-68
2022/04/06 00:35:48;;;;;;;3.67;3.30;;;10.40;98.20;;;;;;5055380;28;20155;-68
2022/04/06 00:38:14;;;;;;;3.80;3.45;;;10.30;98.20;;;;;;5053989;28;20520;-68
2022/04/06 00:40:40;;;;;;;4.00;3.60;;;10.20;98.50;;;;;;5058789;28;20082;-68
2022/04/06 00:43:09;;;;;;;3.97;3.67;;;10.10;99.00;;;;;;5054393;28;20076;-68
2022/04/06 00:45:35;;;;;;;4.72;4.32;;;9.90;99.40;;;;;;5053957;28;20044;-68
2022/04/06 00:48:01;;;;;;;4.30;3.90;;;9.80;99.90;;;;;;5056570;28;20051;-68
2022/04/06 00:50:27;;;;;;;6.55;4.00;;;9.70;99.90;;;;;;5054876;28;20052;-68
2022/04/06 00:52:56;;;;;;;4.88;4.47;;;9.60;99.90;;;;;;5057171;28;20025;-68
2022/04/06 00:55:29;;;;;;;5.15;4.65;;;9.60;99.90;;;;;;5051651;28;20446;-68
2022/04/06 00:57:56;;;;;;;5.50;4.22;;;9.50;99.90;;;;;;5057034;28;20098;-68
2022/04/06 01:00:22;;;;;;;5.82;4.63;;;9.60;99.90;;;;;;5049351;28;20045;-67
2022/04/06 01:02:48;;;;;;;5.13;4.25;;;9.60;99.90;;;;;;5053950;28;20094;-68
2022/04/06 01:05:14;;;;;;;4.40;4.00;;;9.60;99.90;;;;;;5053494;28;20442;-68
2022/04/06 01:07:42;;;;;;;5.10;4.47;;;9.50;99.90;;;;;;5059329;28;20117;-68
2022/04/06 01:10:08;;;;;;;4.72;4.22;;;9.50;99.90;;;;;;5056960;28;20036;-68
2022/04/06 01:12:38;;;;;;;4.20;3.83;;;9.50;99.90;;;;;;5057059;28;20048;-68
2022/04/06 01:15:05;;;;;;;4.70;4.25;;;9.40;99.90;;;;;;5056672;28;20087;-68
2022/04/06 01:17:35;;;;;;;4.68;4.28;;;9.40;99.90;;;;;;5051192;28;20505;-68
2022/04/06 01:20:02;;;;;;;4.82;4.35;;;9.30;99.90;;;;;;5051523;28;20041;-68
2022/04/06 01:22:28;;;;;;;6.13;4.45;;;9.30;99.90;;;;;;5047799;28;20060;-68
2022/04/06 01:24:54;;;;;;;4.30;3.90;;;9.30;99.90;;;;;;5052646;28;20068;-68
2022/04/06 01:27:20;;;;;;;4.35;3.95;;;9.30;99.90;;;;;;5050585;28;20037;-68
2022/04/06 01:29:46;;;;;;;4.35;3.88;;;9.30;99.90;;;;;;5044540;28;20043;-68
2022/04/06 01:32:24;;;;;;;6.63;4.45;;;9.40;99.90;;;;;;5053225;28;21047;-68
2022/04/06 01:34:53;;;;;;;5.82;4.20;;;9.40;99.90;;;;;;5048789;28;20033;-68
2022/04/06 01:37:18;;;;;;;4.75;4.25;;;9.40;99.90;;;;;;5045296;28;20033;-67
2022/04/06 01:39:45;;;;;;;4.82;4.32;;;9.40;99.90;;;;;;5052321;28;20799;-68
2022/04/06 01:42:15;;;;;;;5.30;4.80;;;9.50;99.90;;;;;;5048858;28;20068;-68
2022/04/06 01:44:41;;;;;;;5.22;4.57;;;9.50;99.90;;;;;;5053349;28;20618;-68
2022/04/06 01:47:07;;;;;;;5.22;4.70;;;9.40;99.90;;;;;;5055597;28;20044;-68
2022/04/06 01:52:19;;;;;;;5.30;4.80;;;9.40;99.90;;;;;;5048332;28;20108;-68
2022/04/06 01:54:56;;;;;;;5.60;4.93;;;9.40;99.90;;;;;;5054165;28;20440;-68
2022/04/06 01:57:23;;;;;;;5.70;5.18;;;9.30;99.90;;;;;;5051330;28;20083;-68
2022/04/06 01:59:49;;;;;;;5.93;5.28;;;9.30;99.90;;;;;;5043616;28;20084;-68
2022/04/06 02:02:17;;;;;;;5.72;5.20;;;9.30;99.90;;;;;;5048889;28;20394;-68
2022/04/06 02:04:44;;;;;;;5.75;5.25;;;9.30;99.90;;;;;;5047674;28;20049;-68
2022/04/06 02:07:11;;;;;;;5.80;5.20;;;9.20;99.90;;;;;;5050016;28;20037;-68
2022/04/06 02:09:38;;;;;;;6.35;5.75;;;9.20;99.90;;;;;;5051198;28;20040;-68
2022/04/06 02:12:05;;;;;;;6.10;5.50;;;9.20;99.90;;;;;;5047066;28;20021;-68
2022/04/06 02:14:31;;;;;;;5.78;5.00;;;9.20;99.90;;;;;;5048818;28;20189;-68
2022/04/06 02:16:57;;;;;;;8.43;4.40;;;9.20;99.90;;;;;;5048456;28;20893;-68
2022/04/06 02:19:22;;;;;;;4.57;4.18;;;9.20;99.90;;;;;;5049700;28;20428;-68
2022/04/06 02:21:48;;;;;;;4.50;4.10;;;9.30;99.90;;;;;;5045982;28;20057;-68
2022/04/06 02:24:14;;;;;;;3.55;3.25;;;9.20;99.90;;;;;;5047366;28;20735;-68
2022/04/06 02:26:39;;;;;;;3.85;3.55;;;9.30;99.90;;;;;;5048427;28;20457;-68
2022/04/06 02:29:05;;;;;;;3.58;3.28;;;9.30;99.90;;;;;;5047616;28;20045;-68
2022/04/06 02:31:32;;;;;;;3.60;3.30;;;9.30;99.90;;;;;;5045041;28;20701;-68
2022/04/06 02:33:58;;;;;;;3.50;3.20;;;9.30;99.90;;;;;;5046838;28;20324;-67
2022/04/06 02:36:24;;;;;;;3.50;3.20;;;9.40;99.90;;;;;;5045799;28;20029;-67
2022/04/06 02:38:49;;;;;;;3.13;2.70;;;9.40;99.90;;;;;;5044251;28;20652;-67
2022/04/06 02:41:15;;;;;;;4.25;2.80;;;9.40;99.90;;;;;;5045852;28;20052;-68
2022/04/06 02:43:41;;;;;;;3.25;2.95;;;9.40;99.90;;;;;;5046417;28;20106;-68
2022/04/06 02:46:07;;;;;;;3.20;2.90;;;9.40;99.90;;;;;;5048261;28;20516;-68
2022/04/06 02:48:33;;;;;;;3.67;3.10;;;9.40;99.90;;;;;;5049856;28;20055;-68
2022/04/06 02:50:59;;;;;;;3.08;2.88;;;9.50;99.90;;;;;;5047117;28;20401;-67
2022/04/06 02:53:24;;;;;;;3.30;3.00;;;9.50;99.90;;;;;;5048009;28;20351;-68
2022/04/06 02:55:50;;;;;;;2.40;2.20;;;9.60;99.90;;;;;;5046885;28;20099;-68
2022/04/06 02:58:16;;;;;;;2.50;2.30;;;9.60;99.90;;;;;;5047004;28;20632;-67
2022/04/06 03:00:42;;;;;;;2.53;2.20;;;9.70;99.90;;;;;;5045860;28;20056;-67
2022/04/06 03:03:08;;;;;;;2.70;2.50;;;9.70;99.90;;;;;;5049547;28;20045;-68
2022/04/06 03:05:33;;;;;;;2.95;2.53;;;9.70;99.90;;;;;;5048347;28;20052;-68
2022/04/06 03:07:59;;;;;;;6.35;3.60;;;9.70;99.90;;;;;;5042438;28;20548;-68
2022/04/06 03:10:25;;;;;;;4.20;3.30;;;9.80;99.90;;;;;;5038641;28;20045;-68
2022/04/06 03:12:51;;;;;;;6.78;3.92;;;9.90;99.90;;;;;;5044254;28;20045;-68
2022/04/06 03:15:17;;;;;;;11.98;6.65;;;9.80;99.90;;;;;;5047250;28;20044;-68
2022/04/06 03:17:43;;;;;;;18.10;8.40;;;9.80;99.90;;;;;;5047274;28;20059;-68
2022/04/06 03:20:13;;;;;;;5.55;3.95;;;9.90;99.90;;;;;;5046675;28;20040;-67
2022/04/06 03:22:39;;;;;;;12.70;5.38;;;9.90;99.90;;;;;;5050351;28;20094;-68
2022/04/06 03:25:05;;;;;;;3.65;2.70;;;9.90;99.90;;;;;;5047541;28;20045;-67
2022/04/06 03:27:30;;;;;;;2.95;2.00;;;9.90;99.90;;;;;;5049991;28;20081;-68
2022/04/06 03:29:56;;;;;;;3.83;2.40;;;9.90;99.90;;;;;;5044809;28;20070;-68
2022/04/06 03:32:22;;;;;;;7.40;4.82;;;9.80;99.90;;;;;;5046365;28;21130;-68
2022/04/06 03:34:47;;;;;;;3.70;2.75;;;9.80;99.90;;;;;;5052969;28;20115;-68
2022/04/06 03:37:13;;;;;;;3.83;2.20;;;9.90;99.90;;;;;;5049325;28;20095;-68
2022/04/06 03:39:39;;;;;;;3.63;2.78;;;9.90;99.90;;;;;;5053845;28;20442;-68
2022/04/06 03:42:05;;;;;;;3.35;2.75;;;10.00;99.90;;;;;;5049693;28;20055;-68
2022/04/06 03:44:30;;;;;;;2.45;2.22;;;10.00;99.90;;;;;;5055364;28;20785;-67
2022/04/06 03:46:56;;;;;;;1.63;1.52;;;10.00;99.90;;;;;;5055861;28;20041;-67
2022/04/06 03:49:22;;;;;;;1.10;0.95;;;10.00;99.90;;;;;;5053780;28;20489;-68
2022/04/06 03:51:48;;;;;;;1.42;1.00;;;10.00;99.90;;;;;;5058149;28;20090;-67
2022/04/06 03:54:14;;;;;;;0.77;0.70;;;10.00;99.90;;;;;;5051607;28;20060;-68
2022/04/06 03:56:40;;;;;;;2.05;1.02;;;10.00;99.90;;;;;;5054868;28;20049;-68
2022/04/06 03:59:06;;;;;;;0.90;0.85;;;10.00;99.90;;;;;;5050872;28;20523;-67
2022/04/06 04:01:35;;;;;;;1.13;1.02;;;10.10;99.90;;;;;;5053741;28;20067;-68
2022/04/06 04:04:01;;;;;;;2.63;1.73;;;10.10;99.90;;;;;;5060138;28;20486;-68
2022/04/06 04:06:27;;;;;;;1.83;1.52;;;10.10;99.90;;;;;;5053306;28;20075;-67
2022/04/06 04:08:52;;;;;;;1.90;1.75;;;10.00;99.90;;;;;;5054109;28;20492;-67
2022/04/06 04:11:18;;;;;;;3.63;2.42;;;9.90;99.90;;;;;;5057429;28;20397;-68
2022/04/06 04:13:43;;;;;;;4.85;2.45;;;9.90;99.90;;;;;;5053381;28;20040;-68
2022/04/06 04:16:09;;;;;;;2.92;2.10;;;9.90;99.90;;;;;;5057034;28;20560;-68
2022/04/06 04:18:35;;;;;;;3.08;2.65;;;9.90;99.90;;;;;;5051371;28;20127;-67
2022/04/06 04:23:45;;;;;;;3.58;3.05;;;9.90;99.90;;;;;;5050836;28;20132;-67
2022/04/06 04:26:11;;;;;;;7.70;6.90;;;9.80;99.90;;;;;;5056171;28;20036;-67
2022/04/06 04:28:36;;;;;;;5.30;4.53;;;9.80;99.90;;;;;;5053650;28;20093;-67
2022/04/06 04:31:02;;;;;;;6.75;5.93;;;9.70;99.90;;;;;;5055570;28;20051;-68
2022/04/06 04:33:28;;;;;;;5.72;4.70;;;9.60;99.90;;;;;;5057475;28;20032;-67
2022/04/06 04:35:54;;;;;;;5.45;4.13;;;9.50;99.90;;;;;;5055561;28;20043;-68
2022/04/06 04:38:20;;;;;;;13.65;11.70;;;9.40;99.90;;;;;;5040130;28;20194;-68
2022/04/06 04:40:45;;;;;;;12.05;8.20;;;9.30;99.90;;;;;;5058205;28;20045;-68
2022/04/06 04:43:11;;;;;;;9.05;6.53;;;9.40;99.90;;;;;;5055117;28;20073;-68
2022/04/06 04:45:37;;;;;;;7.55;6.45;;;9.40;99.90;;;;;;5053891;28;20045;-67
2022/04/06 04:48:03;;;;;;;6.00;4.40;;;9.40;99.90;;;;;;5057652;28;20081;-68
2022/04/06 04:50:28;;;;;;;3.13;2.83;;;9.40;99.90;;;;;;5055979;28;20052;-68
2022/04/06 04:52:54;;;;;;;4.03;3.63;;;9.50;99.90;;;;;;5053451;28;20063;-68
2022/04/06 04:55:20;;;;;;;8.68;4.93;;;9.50;99.90;;;;;;5057913;28;20521;-68
2022/04/06 04:57:45;;;;;;;4.35;3.05;;;9.40;99.90;;;;;;5049892;28;20473;-68
2022/04/06 05:00:12;;;;;;;2.92;2.35;;;9.20;99.90;;;;;;5045581;28;20043;-67
2022/04/06 05:02:38;;;;;;;2.25;2.05;;;9.10;99.90;;;;;;5050895;28;20520;-67
2022/04/06 05:05:08;;;;;;;3.50;1.90;;;9.00;99.90;;;;;;5055293;28;20060;-67
2022/04/06 05:07:37;;;;;;;3.40;2.28;;;9.00;99.90;;;;;;5053596;28;20147;-67
2022/04/06 05:10:07;;;;;;;2.75;2.20;;;9.00;99.90;;;;;;5052675;28;20037;-67
2022/04/06 05:12:33;;;;;;;2.83;2.47;;;9.10;99.90;;;;;;5049278;28;20073;-67
2022/04/06 05:14:59;;;;;;;7.82;2.58;;;9.10;99.90;;;;;;5051609;28;20052;-67
2022/04/06 05:17:25;;;;;;;4.68;3.53;;;9.10;99.90;;;;;;5053497;28;20443;-67
2022/04/06 05:19:51;;;;;;;3.88;2.85;;;9.30;99.90;;;;;;5052079;28;20033;-67
2022/04/06 05:22:17;;;;;;;4.00;2.70;;;9.30;99.90;;;;;;5050114;28;20187;-67
2022/04/06 05:24:43;;;;;;;5.70;3.45;;;9.40;99.90;;;;;;5051674;28;20033;-66
2022/04/06 05:27:08;;;;;;;5.05;2.92;;;9.50;99.90;;;;;;5052524;28;20507;-67
2022/04/06 05:29:34;;;;;;;2.85;2.35;;;9.50;99.90;;;;;;5054267;28;20148;-67
2022/04/06 05:32:00;;;;;;;2.55;2.35;;;9.50;99.90;;;;;;5052848;28;20064;-67
2022/04/06 05:34:26;;;;;;;2.97;2.67;;;9.50;99.90;;;;;;5039896;28;20109;-67
2022/04/06 05:36:51;;;;;;;6.13;2.72;;;9.50;99.90;;;;;;5053262;28;20036;-67
2022/04/06 05:39:17;;;;;;;2.60;2.40;;;9.70;99.90;;;;;;5054631;28;20436;-68
2022/04/06 05:41:43;;;;;;;2.30;2.10;;;9.80;99.90;;;;;;5059458;28;20679;-67
2022/04/06 05:44:08;;;;;;;2.22;2.00;;;9.80;99.90;;;;;;5054413;28;20512;-67
2022/04/06 05:46:34;;;;;;;1.70;1.60;;;9.80;99.90;;;;;;5059147;28;20044;-67
2022/04/06 05:49:00;;;;;;;2.67;2.28;;;9.80;99.90;;;;;;5062694;28;20479;-67
2022/04/06 05:51:25;;;;;;;2.20;2.00;;;9.70;99.90;;;;;;5053527;28;20430;-67
2022/04/06 05:53:51;;;;;;;2.50;2.10;;;9.60;99.90;;;;;;5056949;28;20037;-67
2022/04/06 05:56:17;;;;;;;2.88;1.90;;;9.60;99.90;;;;;;5050743;28;20848;-67
2022/04/06 05:58:43;;;;;;;2.30;1.80;;;9.70;99.90;;;;;;5053811;28;20056;-67
2022/04/06 06:01:09;;;;;;;2.90;1.77;;;9.70;99.90;;;;;;5052408;28;20041;-68
2022/04/06 06:03:35;;;;;;;3.22;1.98;;;9.80;99.90;;;;;;5056254;28;20044;-67
2022/04/06 06:06:01;;;;;;;1.92;1.73;;;9.90;99.90;;;;;;5065616;28;20484;-67
2022/04/06 06:08:26;;;;;;;3.65;1.98;;;9.90;99.90;;;;;;5050001;28;20482;-66
2022/04/06 06:10:52;;;;;;;3.20;2.22;;;9.90;99.90;;;;;;5048157;28;20051;-67
2022/04/06 06:13:18;;;;;;;3.17;2.78;;;9.90;99.90;;;;;;5054300;28;20566;-67
2022/04/06 06:15:43;;;;;;;3.53;2.25;;;9.90;99.90;;;;;;5058327;28;20076;-67
2022/04/06 06:18:09;;;;;;;2.63;1.98;;;9.80;99.90;;;;;;5054625;28;20052;-67
2022/04/06 06:20:35;;;;;;;2.53;2.25;;;9.90;99.90;;;;;;5060953;28;20496;-67
2022/04/06 06:23:01;;;;;;;2.22;2.00;;;10.00;99.90;;;;;;5053364;28;20041;-67
2022/04/06 06:25:26;;;;;;;3.47;2.50;;;10.20;99.90;;;;;;5051479;28;20593;-67
2022/04/06 06:27:52;;;;;;;4.00;3.20;;;10.50;99.90;;;;;;5036706;28;20475;-67
2022/04/06 06:30:18;;;;;;;3.30;2.33;;;10.70;99.90;;;;;;5049442;28;20045;-67
2022/04/06 06:32:45;;;;;;;3.55;2.47;;;11.00;99.90;;;;;;5058279;28;21408;-67
2022/04/06 06:35:11;;;;;;;3.22;2.70;;;11.20;99.90;;;;;;5056472;28;20143;-67
2022/04/06 06:37:45;;;;;;;3.40;2.30;;;11.40;99.90;;;;;;5052351;28;20135;-67
2022/04/06 06:40:11;;;;;;;4.55;2.15;;;11.60;99.40;;;;;;5052313;28;20035;-67
2022/04/06 06:42:37;;;;;;;6.07;3.00;;;11.80;98.90;;;;;;5057557;28;20048;-67
2022/04/06 06:45:03;;;;;;;3.65;1.70;;;12.00;98.20;;;;;;5051917;28;20049;-67
2022/04/06 06:47:28;;;;;;;2.50;1.73;;;12.20;97.70;;;;;;5052750;28;20102;-67
2022/04/06 06:49:54;;;;;;;3.72;2.65;;;12.30;97.50;;;;;;5052521;28;20060;-67
2022/04/06 06:52:19;;;;;;;3.00;2.65;;;12.40;97.50;;;;;;5054713;28;20041;-67
2022/04/06 06:54:45;;;;;;;3.95;1.70;;;12.60;97.60;;;;;;5055827;28;20036;-67
2022/04/06 06:57:11;;;;;;;3.13;2.40;;;12.70;96.80;;;;;;5053921;28;20032;-67
2022/04/06 06:59:37;;;;;;;2.17;1.80;;;12.80;96.40;;;;;;5058606;28;20040;-67
2022/04/06 07:02:03;;;;;;;2.17;1.80;;;12.90;96.50;;;;;;5044318;28;20041;-67
2022/04/06 07:04:29;;;;;;;2.95;1.50;;;12.90;96.10;;;;;;5050441;28;20045;-67
2022/04/06 07:06:55;;;;;;;3.53;1.92;;;13.10;95.80;;;;;;5051958;28;20044;-66
2022/04/06 07:09:20;;;;;;;2.90;1.65;;;13.20;96.30;;;;;;5053971;28;20028;-67
2022/04/06 07:11:46;;;;;;;4.18;1.77;;;13.20;96.10;;;;;;5052478;28;20040;-67
2022/04/06 07:14:11;;;;;;;2.33;1.33;;;13.20;95.40;;;;;;5055190;28;20123;-66
2022/04/06 07:16:37;;;;;;;1.98;1.55;;;13.20;95.60;;;;;;5050063;28;20528;-67
2022/04/06 07:19:03;;;;;;;4.22;1.75;;;13.30;95.40;;;;;;5049379;28;20047;-67
2022/04/06 07:21:28;;;;;;;2.10;1.20;;;13.40;95.10;;;;;;5054520;28;20049;-66
2022/04/06 07:23:55;;;;;;;2.10;1.38;;;13.50;94.70;;;;;;5054645;28;20043;-67
2022/04/06 07:26:21;;;;;;;1.63;1.10;;;13.60;94.30;;;;;;5056064;28;20071;-68
2022/04/06 07:28:47;;;;;;;2.78;1.77;;;13.60;94.30;;;;;;5046503;28;20127;-70
2022/04/06 07:31:14;;;;;;;3.05;1.15;;;13.70;94.20;;;;;;5049595;28;20140;-67
2022/04/06 07:33:40;;;;;;;0.68;0.68;;;13.70;94.40;;;;;;5053019;28;20044;-67
2022/04/06 07:36:07;;;;;;;0.40;0.40;;;13.80;93.20;;;;;;5048125;28;20040;-67
2022/04/06 07:38:32;;;;;;;0.20;0.20;;;13.90;93.10;;;;;;5054078;28;20036;-68
2022/04/06 07:40:58;;;;;;;0.70;0.15;;;14.10;92.80;;;;;;5055107;28;20075;-67
2022/04/06 07:43:25;;;;;;;0.20;0.20;;;14.20;93.00;;;;;;5056587;28;20052;-68
2022/04/06 07:45:50;;;;;;;0.30;0.20;;;14.20;92.30;;;;;;5048527;28;20126;-67
2022/04/06 07:48:16;;;;;;;2.25;0.30;;;14.20;92.10;;;;;;5049308;28;20048;-67
2022/04/06 07:50:42;;;;;;;0.20;0.20;;;14.20;91.80;;;;;;5055858;28;20068;-68
2022/04/06 07:53:07;;;;;;;0.68;0.30;;;14.40;92.00;;;;;;5054364;28;20043;-68
2022/04/06 07:55:33;;;;;;;0.20;0.20;;;14.40;91.50;;;;;;5053582;28;20049;-68
2022/04/06 07:58:00;;;;;;;0.30;0.22;;;14.40;91.10;;;;;;5047183;28;20376;-68
2022/04/06 08:00:25;;;;;;;0.28;0.20;;;14.30;91.70;;;;;;5039539;28;20044;-67
2022/04/06 08:02:51;;;;;;;0.60;0.20;;;14.20;91.40;;;;;;5048677;28;20044;-68
2022/04/06 08:05:18;;;;;;;0.57;0.10;;;14.10;90.70;;;;;;5052135;28;20409;-68
2022/04/06 08:07:44;;;;;;;0.55;0.20;;;14.10;91.30;;;;;;5058149;28;20723;-67
2022/04/06 08:10:13;;;;;;;1.27;0.40;;;14.10;91.10;;;;;;5055110;28;20040;-67
2022/04/06 08:12:38;;;;;;;0.22;0.22;;;14.10;90.30;;;;;;5053068;28;20036;-68
2022/04/06 08:15:05;;;;;;;0.20;0.20;;;14.10;89.60;;;;;;5051258;28;20036;-68
2022/04/06 08:17:38;;;;;;;1.45;0.22;;;14.20;88.60;;;;;;5050075;28;20691;-67
2022/04/06 08:20:05;;;;;;;1.33;0.20;;;14.10;88.30;;;;;;5052239;28;20040;-68
2022/04/06 08:22:31;;;;;;;3.60;0.73;;;14.10;88.10;;;;;;5051393;28;20063;-68
2022/04/06 08:24:57;;;;;;;0.45;0.30;;;14.10;88.80;;;;;;5051585;28;20108;-69
2022/04/06 08:27:23;;;;;;;0.55;0.38;;;14.00;87.40;;;;;;5056553;28;20048;-67
2022/04/06 08:29:49;;;;;;;0.77;0.50;;;14.00;87.60;;;;;;5051129;28;20045;-67
2022/04/06 08:32:15;;;;;;;0.80;0.30;;;14.10;89.10;;;;;;5056505;28;20110;-67
2022/04/06 08:34:41;;;;;;;0.45;0.30;;;14.10;87.70;;;;;;5054946;28;20040;-67
2022/04/06 08:37:08;;;;;;;0.30;0.30;;;14.20;88.50;;;;;;5051636;28;20037;-71
2022/04/06 08:39:34;;;;;;;7.53;1.98;;;14.30;87.60;;;;;;5052340;28;20059;-70
2022/04/06 08:42:00;;;;;;;2.28;0.30;;;14.30;87.30;;;;;;5055205;28;20052;-70
2022/04/06 08:44:26;;;;;;;2.10;0.50;;;14.40;87.40;;;;;;5057827;28;20182;-69
2022/04/06 08:46:55;;;;;;;0.30;0.30;;;14.40;88.00;;;;;;5061104;28;20546;-69
2022/04/06 08:49:24;;;;;;;0.65;0.40;;;14.50;86.20;;;;;;5054330;28;20488;-70
2022/04/06 08:51:51;;;;;;;0.70;0.40;;;14.60;87.10;;;;;;5049344;28;20651;-70
2022/04/06 08:54:16;;;;;;;0.68;0.40;;;14.80;89.00;;;;;;5045888;28;20110;-70
2022/04/06 08:56:43;;;;;;;0.80;0.57;;;14.90;86.80;;;;;;5048603;28;20067;-69
2022/04/06 08:59:10;;;;;;;1.10;0.30;;;15.00;86.20;;;;;;5054192;28;20071;-70
2022/04/06 09:01:35;;;;;;;0.30;0.30;;;15.00;85.50;;;;;;5054692;28;20048;-70
2022/04/06 09:04:01;;;;;;;0.60;0.60;;;15.00;85.20;;;;;;5045699;28;20115;-70
2022/04/06 09:06:31;;;;;;;2.53;0.80;;;15.00;86.40;;;;;;5052356;28;20401;-69
2022/04/06 09:08:57;;;;;;;0.65;0.45;;;15.00;85.20;;;;;;5054277;28;20032;-70
2022/04/06 09:11:22;;;;;;;0.40;0.40;;;15.00;85.30;;;;;;5063248;28;20056;-69
2022/04/06 09:13:57;;;;;;;0.43;0.43;;;15.10;84.70;;;;;;5054148;28;20082;-69
2022/04/06 09:16:28;;;;;;;0.75;0.32;;;15.10;85.50;;;;;;5044915;28;20041;-69
2022/04/06 09:18:54;;;;;;;0.93;0.80;;;15.10;85.50;;;;;;5050261;28;20047;-69
2022/04/06 09:21:20;;;;;;;2.28;1.38;;;15.20;84.80;;;;;;5051492;28;20037;-69
2022/04/06 09:23:49;;;;;;;0.82;0.68;;;15.20;85.30;;;;;;5054361;28;20063;-69
2022/04/06 09:26:20;;;;;;;0.73;0.50;;;15.30;82.30;;;;;;5047878;28;20049;-69
2022/04/06 09:28:48;;;;;;;1.02;0.80;;;15.30;83.30;;;;;;5045253;28;20033;-70
2022/04/06 09:31:15;;;;;;;0.22;0.22;;;15.30;84.10;;;;;;5054331;28;20042;-70
2022/04/06 09:33:43;;;;;;;1.08;0.60;;;15.20;82.70;;;;;;5051312;28;20119;-70
2022/04/06 09:36:20;;;;;;;1.30;0.60;;;15.20;82.50;;;;;;5054301;28;20488;-70
2022/04/06 09:38:50;;;;;;;0.40;0.40;;;15.20;82.90;;;;;;5056470;28;20040;-69
2022/04/06 09:41:17;;;;;;;0.50;0.50;;;15.20;82.00;;;;;;5041190;28;20084;-69
2022/04/06 09:43:45;;;;;;;0.32;0.30;;;15.20;81.10;;;;;;5048739;28;20048;-70
2022/04/06 09:49:12;;;;;;;0.47;0.15;;;15.30;82.90;;;;;;5051348;28;20078;-70
2022/04/06 09:51:40;;;;;;;0.85;0.38;;;15.30;81.50;;;;;;5046630;28;20036;-69
2022/04/06 09:54:07;;;;;;;0.30;0.30;;;15.30;81.80;;;;;;5049133;28;20036;-70
2022/04/06 09:56:34;;;;;;;0.30;0.30;;;15.30;81.80;;;;;;5052823;28;20041;-70
2022/04/06 09:59:02;;;;;;;0.30;0.30;;;15.30;82.40;;;;;;5041981;28;20029;-70
2022/04/06 10:01:46;;;;;;;0.43;0.28;;;15.40;82.40;;;;;;5048693;28;20044;-70
2022/04/06 10:04:14;;;;;;;1.60;0.60;;;15.60;83.60;;;;;;5040292;28;20037;-70
2022/04/06 10:06:42;;;;;;;1.98;0.82;;;15.70;81.90;;;;;;5029906;28;20098;-69
2022/04/06 10:09:10;;;;;;;1.05;0.80;;;15.80;79.70;;;;;;5043663;28;20040;-70
2022/04/06 10:11:40;;;;;;;0.50;0.50;;;15.80;79.10;;;;;;5041743;28;20041;-70
2022/04/06 10:14:09;;;;;;;0.65;0.60;;;15.80;77.90;;;;;;5058155;28;20036;-70
2022/04/06 10:16:36;;;;;;;3.47;0.93;;;16.00;78.90;;;;;;5053607;28;20036;-71
2022/04/06 10:19:03;;;;;;;1.50;0.75;;;16.10;78.80;;;;;;5055431;28;20036;-72
2022/04/06 10:21:38;;;;;;;1.42;0.60;;;16.20;76.60;;;;;;5054318;28;20076;-70
2022/04/06 10:24:21;;;;;;;1.60;0.73;;;16.30;77.10;;;;;;5050532;28;20025;-70
2022/04/06 10:26:53;;;;;;;2.42;0.70;;;16.40;77.00;;;;;;5059376;28;20151;-71
2022/04/06 10:29:19;;;;;;;1.90;0.73;;;16.60;78.10;;;;;;5055469;28;20037;-71
2022/04/06 10:31:46;;;;;;;3.30;0.73;;;16.70;75.60;;;;;;5059176;28;20458;-71
2022/04/06 10:34:19;;;;;;;0.65;0.65;;;16.90;75.20;;;;;;5047976;28;20025;-70
2022/04/06 10:37:12;;;;;;;0.60;0.60;;;16.90;74.60;;;;;;5059344;28;20036;-70
2022/04/06 10:39:57;;;;;;;0.70;0.63;;;17.00;72.70;;;;;;5052856;28;20037;-71
2022/04/06 10:42:33;;;;;;;0.73;0.65;;;17.20;73.00;;;;;;5057238;28;20051;-70
2022/04/06 10:45:00;;;;;;;0.60;0.60;;;17.30;71.80;;;;;;5030634;28;20068;-70
2022/04/06 10:47:26;;;;;;;1.20;0.60;;;17.30;70.00;;;;;;5059965;28;20661;-70
2022/04/06 10:50:10;;;;;;;0.90;0.50;;;17.30;68.90;;;;;;5056082;28;20151;-70
2022/04/06 10:52:36;;;;;;;1.52;0.63;;;17.10;70.90;;;;;;5058655;28;20024;-70
2022/04/06 10:55:09;;;;;;;4.80;1.17;;;17.20;71.50;;;;;;5048128;28;20908;-70
2022/04/06 10:57:59;;;;;;;2.38;1.45;;;17.30;68.80;;;;;;5052658;28;20136;-70
2022/04/06 11:00:25;;;;;;;2.05;0.93;;;17.20;68.70;;;;;;5060917;28;20032;-71
2022/04/06 11:02:52;;;;;;;1.08;0.90;;;17.30;68.00;;;;;;5059137;28;20083;-70
2022/04/06 11:05:52;;;;;;;3.70;0.93;;;17.20;66.70;;;;;;5048727;28;20954;-71
2022/04/06 11:11:42;;;;;;;0.95;0.90;;;17.10;68.10;;;;;;5053967;28;20639;-70
2022/04/06 11:14:09;;;;;;;2.80;0.50;;;17.10;66.90;;;;;;5056393;28;20571;-70
2022/04/06 11:16:42;;;;;;;2.75;1.33;;;17.10;66.70;;;;;;5055666;28;20040;-71
2022/04/06 11:19:08;;;;;;;1.30;1.05;;;17.20;66.70;;;;;;5057381;28;20501;-71
2022/04/06 11:21:34;;;;;;;2.67;1.27;;;17.10;67.50;;;;;;5055262;28;20127;-70
2022/04/06 11:23:59;;;;;;;2.10;1.40;;;17.10;65.80;;;;;;5051502;28;20045;-70
2022/04/06 11:26:26;;;;;;;2.72;1.95;;;17.10;66.30;;;;;;5054860;28;20037;-70
2022/04/06 11:28:58;;;;;;;1.70;1.20;;;17.20;67.70;;;;;;5061630;28;20037;-70
2022/04/06 11:31:24;;;;;;;0.95;0.82;;;17.30;64.60;;;;;;5052171;28;20132;-70
2022/04/06 11:33:50;;;;;;;0.70;0.65;;;17.40;64.40;;;;;;5059392;28;20807;-70
2022/04/06 11:36:17;;;;;;;0.70;0.70;;;17.60;62.90;;;;;;5052848;28;20046;-70
2022/04/06 11:38:48;;;;;;;2.20;1.00;;;17.70;63.70;;;;;;5049361;28;20029;-70
2022/04/06 11:41:18;;;;;;;1.77;0.75;;;17.90;61.00;;;;;;5056089;28;20492;-70
2022/04/06 11:43:44;;;;;;;1.17;1.08;;;18.00;60.60;;;;;;5059921;28;20564;-71
2022/04/06 11:46:10;;;;;;;4.50;1.60;;;18.10;62.20;;;;;;5077029;28;20138;-70
2022/04/06 11:48:40;;;;;;;2.13;0.98;;;18.20;62.70;;;;;;5062864;28;20118;-70
2022/04/06 11:51:06;;;;;;;3.78;1.58;;;18.20;62.90;;;;;;5079044;28;20102;-70
2022/04/06 11:53:32;;;;;;;2.58;1.90;;;18.30;62.70;;;;;;5077263;28;20154;-71
2022/04/06 11:56:00;;;;;;;1.52;1.40;;;18.20;60.90;;;;;;5078433;28;20040;-71
2022/04/06 11:58:36;;;;;;;1.75;1.33;;;18.20;61.80;;;;;;5077290;28;20048;-71
2022/04/06 12:01:09;;;;;;;1.20;1.00;;;18.20;62.20;;;;;;5079874;28;20047;-71
2022/04/06 12:03:37;;;;;;;1.33;1.10;;;18.40;62.90;;;;;;5073913;28;20036;-71
2022/04/06 12:06:05;;;;;;;1.30;1.20;;;18.60;60.50;;;;;;5072579;28;20515;-70
2022/04/06 12:08:34;;;;;;;1.40;1.30;;;18.60;61.30;;;;;;5071744;28;20041;-71
2022/04/06 12:11:01;;;;;;;2.22;1.60;;;18.50;60.20;;;;;;5073835;28;20086;-70
2022/04/06 12:13:29;;;;;;;1.95;1.50;;;18.40;61.70;;;;;;5077458;28;20119;-70
2022/04/06 12:15:56;;;;;;;1.52;1.42;;;18.40;60.50;;;;;;5079129;28;20413;-71
2022/04/06 12:18:24;;;;;;;1.77;1.67;;;18.30;60.50;;;;;;5080050;28;20040;-71
2022/04/06 12:20:50;;;;;;;1.70;1.60;;;18.40;63.00;;;;;;5076047;28;20032;-71
2022/04/06 12:23:18;;;;;;;2.20;1.30;;;18.60;61.90;;;;;;5077627;28;20043;-70
2022/04/06 12:25:44;;;;;;;2.40;1.25;;;18.80;60.30;;;;;;5073969;28;20071;-71
2022/04/06 12:28:19;;;;;;;2.05;1.23;;;18.80;59.10;;;;;;5078978;28;20047;-71
2022/04/06 12:30:55;;;;;;;1.50;1.40;;;18.60;59.60;;;;;;5076428;28;20040;-70
2022/04/06 12:33:41;;;;;;;1.70;1.55;;;18.50;60.40;;;;;;5080686;28;20501;-70
2022/04/06 12:36:15;;;;;;;2.88;1.08;;;18.50;59.80;;;;;;5079660;28;20040;-70
2022/04/06 12:39:04;;;;;;;1.60;0.90;;;18.60;59.50;;;;;;5079105;28;20068;-71
2022/04/06 12:41:32;;;;;;;2.42;1.45;;;18.70;58.70;;;;;;5062119;28;20181;-71
2022/04/06 12:44:00;;;;;;;1.60;1.30;;;18.90;57.90;;;;;;5076729;28;20044;-70
2022/04/06 12:46:43;;;;;;;2.70;1.83;;;18.90;58.30;;;;;;5065499;28;20895;-70
2022/04/06 12:49:24;;;;;;;1.67;1.35;;;18.90;59.20;;;;;;5077505;28;20047;-71
2022/04/06 12:52:12;;;;;;;3.80;1.90;;;18.90;57.50;;;;;;5073027;28;20525;-71
2022/04/06 12:54:40;;;;;;;2.00;1.60;;;18.90;59.10;;;;;;5074647;28;20038;-71
2022/04/06 12:57:17;;;;;;;1.17;1.08;;;19.00;57.50;;;;;;5079255;28;20056;-71
2022/04/06 12:59:46;;;;;;;1.63;1.42;;;19.10;60.00;;;;;;5071134;28;20039;-70
2022/04/06 13:02:45;;;;;;;2.75;2.05;;;19.40;57.30;;;;;;5073871;28;20401;-70
2022/04/06 13:05:14;;;;;;;5.57;2.53;;;19.50;58.80;;;;;;5080852;28;20476;-70